sensor_id;sensor_type;location;lat;lon;timestamp;temperature;humidity
23801;DHT22;12081;48.614;10.226;2023-12-14T00:02:03;4.20;99.90
23801;DHT22;12081;48.614;10.226;2023-12-14T00:04:47;4.20;99.90
23801;DHT22;12081;48.614;10.226;2023-12-14T00:07:32;4.20;99.90
23801;DHT22;12081;48.614;10.226;2023-12-14T00:10:16;4.20;99.90
23801;DHT22;12081;48.614;10.226;2023-12-14T00:13:02;4.10;99.90
23801;DHT22;12081;48.614;10.226;2023-12-14T00:15:48;4.10;99.90
23801;DHT22;12081;48.614;10.226;2023-12-14T00:18:35;4.20;99.90
23801;DHT22;12081;48.614;10.226;2023-12-14T00:21:19;4.20;99.90
23801;DHT22;12081;48.614;10.226;2023-12-14T00:24:03;4.20;99.90
23801;DHT22;12081;48.614;10.226;2023-12-14T00:26:47;4.10;99.90
23801;DHT22;12081;48.614;10.226;2023-12-14T00:29:31;4.10;99.90
23801;DHT22;12081;48.614;10.226;2023-12-14T00:32:15;4.10;99.90
23801;DHT22;12081;48.614;10.226;2023-12-14T00:34:59;4.10;99.90
23801;DHT22;12081;48.614;10.226;2023-12-14T00:37:43;4.00;99.90
23801;DHT22;12081;48.614;10.226;2023-12-14T00:40:27;4.00;99.90
23801;DHT22;12081;48.614;10.226;2023-12-14T00:43:11;4.00;99.90
23801;DHT22;12081;48.614;10.226;2023-12-14T00:45:55;3.90;99.90
23801;DHT22;12081;48.614;10.226;2023-12-14T00:48:40;3.90;99.90
23801;DHT22;12081;48.614;10.226;2023-12-14T00:51:23;3.80;99.90
23801;DHT22;12081;48.614;10.226;2023-12-14T00:54:08;3.80;99.90
23801;DHT22;12081;48.614;10.226;2023-12-14T00:56:52;3.80;99.90
23801;DHT22;12081;48.614;10.226;2023-12-14T00:59:36;6.60;99.90
23801;DHT22;12081;48.614;10.226;2023-12-14T01:02:19;3.80;99.90
23801;DHT22;12081;48.614;10.226;2023-12-14T01:05:04;3.80;99.90
23801;DHT22;12081;48.614;10.226;2023-12-14T01:07:48;3.70;99.90
23801;DHT22;12081;48.614;10.226;2023-12-14T01:10:32;3.70;99.90
23801;DHT22;12081;48.614;10.226;2023-12-14T01:13:17;3.80;99.90
23801;DHT22;12081;48.614;10.226;2023-12-14T01:16:01;3.80;99.90
23801;DHT22;12081;48.614;10.226;2023-12-14T01:18:46;3.80;99.90
23801;DHT22;12081;48.614;10.226;2023-12-14T01:21:30;3.80;99.90
23801;DHT22;12081;48.614;10.226;2023-12-14T01:24:14;4.90;99.90
23801;DHT22;12081;48.614;10.226;2023-12-14T01:26:58;3.80;99.90
23801;DHT22;12081;48.614;10.226;2023-12-14T01:29:42;3.90;99.90
23801;DHT22;12081;48.614;10.226;2023-12-14T01:32:26;3.90;99.90
23801;DHT22;12081;48.614;10.226;2023-12-14T01:35:10;3.90;99.90
23801;DHT22;12081;48.614;10.226;2023-12-14T01:37:55;3.90;99.90
23801;DHT22;12081;48.614;10.226;2023-12-14T01:40:39;3.90;99.90
23801;DHT22;12081;48.614;10.226;2023-12-14T01:43:23;3.90;99.90
23801;DHT22;12081;48.614;10.226;2023-12-14T01:46:07;4.00;99.90
23801;DHT22;12081;48.614;10.226;2023-12-14T01:48:52;4.00;99.90
23801;DHT22;12081;48.614;10.226;2023-12-14T01:51:37;4.10;99.90
23801;DHT22;12081;48.614;10.226;2023-12-14T01:54:21;4.10;99.90
23801;DHT22;12081;48.614;10.226;2023-12-14T01:57:05;4.10;99.90
23801;DHT22;12081;48.614;10.226;2023-12-14T01:59:49;4.00;99.90
23801;DHT22;12081;48.614;10.226;2023-12-14T02:02:33;4.10;99.90
23801;DHT22;12081;48.614;10.226;2023-12-14T02:05:19;4.10;99.90
23801;DHT22;12081;48.614;10.226;2023-12-14T02:08:04;4.00;99.90
23801;DHT22;12081;48.614;10.226;2023-12-14T02:10:48;5.90;99.90
23801;DHT22;12081;48.614;10.226;2023-12-14T02:13:33;4.00;99.90
23801;DHT22;12081;48.614;10.226;2023-12-14T02:16:17;4.00;99.90
23801;DHT22;12081;48.614;10.226;2023-12-14T02:19:01;4.00;99.90
23801;DHT22;12081;48.614;10.226;2023-12-14T02:21:45;4.10;99.90
23801;DHT22;12081;48.614;10.226;2023-12-14T02:24:29;4.10;99.90
23801;DHT22;12081;48.614;10.226;2023-12-14T02:27:13;4.10;99.90
23801;DHT22;12081;48.614;10.226;2023-12-14T02:29:57;4.50;99.90
23801;DHT22;12081;48.614;10.226;2023-12-14T02:32:42;4.10;99.90
23801;DHT22;12081;48.614;10.226;2023-12-14T02:35:26;4.10;99.90
23801;DHT22;12081;48.614;10.226;2023-12-14T02:38:10;4.10;99.90
23801;DHT22;12081;48.614;10.226;2023-12-14T02:40:54;4.10;99.90
23801;DHT22;12081;48.614;10.226;2023-12-14T02:43:38;4.10;99.90
23801;DHT22;12081;48.614;10.226;2023-12-14T02:46:24;4.10;99.90
23801;DHT22;12081;48.614;10.226;2023-12-14T02:49:08;4.10;99.90
23801;DHT22;12081;48.614;10.226;2023-12-14T02:51:52;4.10;99.90
23801;DHT22;12081;48.614;10.226;2023-12-14T02:54:38;4.10;99.90
23801;DHT22;12081;48.614;10.226;2023-12-14T02:57:23;4.10;99.90
23801;DHT22;12081;48.614;10.226;2023-12-14T03:00:07;4.00;99.90
23801;DHT22;12081;48.614;10.226;2023-12-14T03:02:52;4.00;99.90
23801;DHT22;12081;48.614;10.226;2023-12-14T03:05:36;4.10;99.90
23801;DHT22;12081;48.614;10.226;2023-12-14T03:08:20;4.10;99.90
23801;DHT22;12081;48.614;10.226;2023-12-14T03:11:04;4.20;99.90
23801;DHT22;12081;48.614;10.226;2023-12-14T03:13:48;4.20;99.90
23801;DHT22;12081;48.614;10.226;2023-12-14T03:16:32;4.10;99.90
23801;DHT22;12081;48.614;10.226;2023-12-14T03:19:15;4.10;99.90
23801;DHT22;12081;48.614;10.226;2023-12-14T03:22:00;4.00;99.90
23801;DHT22;12081;48.614;10.226;2023-12-14T03:24:44;4.20;99.90
23801;DHT22;12081;48.614;10.226;2023-12-14T03:27:28;4.00;99.90
23801;DHT22;12081;48.614;10.226;2023-12-14T03:30:12;4.00;99.90
23801;DHT22;12081;48.614;10.226;2023-12-14T03:32:57;4.00;99.90
23801;DHT22;12081;48.614;10.226;2023-12-14T03:35:47;6.90;99.90
23801;DHT22;12081;48.614;10.226;2023-12-14T03:38:32;4.00;99.90
23801;DHT22;12081;48.614;10.226;2023-12-14T03:41:17;7.30;99.90
23801;DHT22;12081;48.614;10.226;2023-12-14T03:44:01;7.50;99.90
23801;DHT22;12081;48.614;10.226;2023-12-14T03:46:45;7.00;99.90
23801;DHT22;12081;48.614;10.226;2023-12-14T03:49:29;7.30;99.90
23801;DHT22;12081;48.614;10.226;2023-12-14T03:52:13;7.60;99.90
23801;DHT22;12081;48.614;10.226;2023-12-14T03:54:57;7.60;99.90
23801;DHT22;12081;48.614;10.226;2023-12-14T03:57:42;7.20;99.90
23801;DHT22;12081;48.614;10.226;2023-12-14T04:00:26;7.60;99.90
23801;DHT22;12081;48.614;10.226;2023-12-14T04:03:10;6.30;99.90
23801;DHT22;12081;48.614;10.226;2023-12-14T04:05:54;6.50;99.90
23801;DHT22;12081;48.614;10.226;2023-12-14T04:08:39;7.60;99.90
23801;DHT22;12081;48.614;10.226;2023-12-14T04:11:24;7.00;99.90
23801;DHT22;12081;48.614;10.226;2023-12-14T04:14:08;7.60;99.90
23801;DHT22;12081;48.614;10.226;2023-12-14T04:16:54;7.20;99.90
23801;DHT22;12081;48.614;10.226;2023-12-14T04:19:39;7.50;99.90
23801;DHT22;12081;48.614;10.226;2023-12-14T04:22:23;7.60;99.90
23801;DHT22;12081;48.614;10.226;2023-12-14T04:25:07;7.10;99.90
23801;DHT22;12081;48.614;10.226;2023-12-14T04:27:52;4.10;99.90
23801;DHT22;12081;48.614;10.226;2023-12-14T04:30:36;7.00;99.90
23801;DHT22;12081;48.614;10.226;2023-12-14T04:33:20;3.90;99.90
23801;DHT22;12081;48.614;10.226;2023-12-14T04:36:04;6.80;99.90
23801;DHT22;12081;48.614;10.226;2023-12-14T04:38:49;4.20;99.90
23801;DHT22;12081;48.614;10.226;2023-12-14T04:41:33;6.30;99.90
23801;DHT22;12081;48.614;10.226;2023-12-14T04:44:17;7.20;99.90
23801;DHT22;12081;48.614;10.226;2023-12-14T04:47:01;6.80;99.90
23801;DHT22;12081;48.614;10.226;2023-12-14T04:49:45;7.90;99.90
23801;DHT22;12081;48.614;10.226;2023-12-14T04:52:29;7.90;99.90
23801;DHT22;12081;48.614;10.226;2023-12-14T04:55:13;7.80;99.90
23801;DHT22;12081;48.614;10.226;2023-12-14T04:57:57;4.50;99.90
23801;DHT22;12081;48.614;10.226;2023-12-14T05:00:42;7.30;99.90
23801;DHT22;12081;48.614;10.226;2023-12-14T05:03:26;8.10;99.90
23801;DHT22;12081;48.614;10.226;2023-12-14T05:06:11;7.60;99.90
23801;DHT22;12081;48.614;10.226;2023-12-14T05:08:54;4.30;99.90
23801;DHT22;12081;48.614;10.226;2023-12-14T05:11:40;7.80;99.90
23801;DHT22;12081;48.614;10.226;2023-12-14T05:14:24;7.40;99.90
23801;DHT22;12081;48.614;10.226;2023-12-14T05:17:08;6.90;99.90
23801;DHT22;12081;48.614;10.226;2023-12-14T05:19:52;5.70;99.90
23801;DHT22;12081;48.614;10.226;2023-12-14T05:22:37;6.90;99.90
23801;DHT22;12081;48.614;10.226;2023-12-14T05:25:21;7.30;99.90
23801;DHT22;12081;48.614;10.226;2023-12-14T05:28:05;4.40;99.90
23801;DHT22;12081;48.614;10.226;2023-12-14T05:30:50;7.10;99.90
23801;DHT22;12081;48.614;10.226;2023-12-14T05:33:40;7.30;99.90
23801;DHT22;12081;48.614;10.226;2023-12-14T05:36:24;4.10;99.90
23801;DHT22;12081;48.614;10.226;2023-12-14T05:39:08;4.30;99.90
23801;DHT22;12081;48.614;10.226;2023-12-14T05:41:53;4.40;99.90
23801;DHT22;12081;48.614;10.226;2023-12-14T05:44:37;4.10;99.90
23801;DHT22;12081;48.614;10.226;2023-12-14T05:47:23;7.30;99.90
23801;DHT22;12081;48.614;10.226;2023-12-14T05:50:09;5.80;99.90
23801;DHT22;12081;48.614;10.226;2023-12-14T05:52:54;3.90;99.90
23801;DHT22;12081;48.614;10.226;2023-12-14T05:55:38;7.80;99.90
23801;DHT22;12081;48.614;10.226;2023-12-14T05:58:24;7.00;99.90
23801;DHT22;12081;48.614;10.226;2023-12-14T06:01:08;6.80;99.90
23801;DHT22;12081;48.614;10.226;2023-12-14T06:03:52;7.10;99.90
23801;DHT22;12081;48.614;10.226;2023-12-14T06:06:38;6.70;99.90
23801;DHT22;12081;48.614;10.226;2023-12-14T06:09:23;4.00;99.90
23801;DHT22;12081;48.614;10.226;2023-12-14T06:12:13;7.40;99.90
23801;DHT22;12081;48.614;10.226;2023-12-14T06:14:58;7.40;99.90
23801;DHT22;12081;48.614;10.226;2023-12-14T06:17:42;7.30;99.90
23801;DHT22;12081;48.614;10.226;2023-12-14T06:20:26;7.20;99.90
23801;DHT22;12081;48.614;10.226;2023-12-14T06:23:10;4.00;99.90
23801;DHT22;12081;48.614;10.226;2023-12-14T06:25:55;7.60;99.90
23801;DHT22;12081;48.614;10.226;2023-12-14T06:28:39;4.00;99.90
23801;DHT22;12081;48.614;10.226;2023-12-14T06:31:23;0.70;99.90
23801;DHT22;12081;48.614;10.226;2023-12-14T06:34:07;6.50;99.90
23801;DHT22;12081;48.614;10.226;2023-12-14T06:36:52;6.60;99.90
23801;DHT22;12081;48.614;10.226;2023-12-14T06:39:36;4.00;99.90
23801;DHT22;12081;48.614;10.226;2023-12-14T06:42:20;4.00;99.90
23801;DHT22;12081;48.614;10.226;2023-12-14T06:45:05;4.10;99.90
23801;DHT22;12081;48.614;10.226;2023-12-14T06:47:49;4.10;99.90
23801;DHT22;12081;48.614;10.226;2023-12-14T06:50:34;6.90;99.90
23801;DHT22;12081;48.614;10.226;2023-12-14T06:53:18;4.00;99.90
23801;DHT22;12081;48.614;10.226;2023-12-14T06:56:02;4.00;99.90
23801;DHT22;12081;48.614;10.226;2023-12-14T06:58:46;3.90;99.90
23801;DHT22;12081;48.614;10.226;2023-12-14T07:01:33;3.90;99.90
23801;DHT22;12081;48.614;10.226;2023-12-14T07:04:17;4.00;99.90
23801;DHT22;12081;48.614;10.226;2023-12-14T07:07:03;4.00;99.90
23801;DHT22;12081;48.614;10.226;2023-12-14T07:09:47;4.00;99.90
23801;DHT22;12081;48.614;10.226;2023-12-14T07:12:32;4.90;99.90
23801;DHT22;12081;48.614;10.226;2023-12-14T07:15:16;6.30;99.90
23801;DHT22;12081;48.614;10.226;2023-12-14T07:17:59;6.60;99.90
23801;DHT22;12081;48.614;10.226;2023-12-14T07:20:43;4.10;99.90
23801;DHT22;12081;48.614;10.226;2023-12-14T07:23:28;4.10;99.90
23801;DHT22;12081;48.614;10.226;2023-12-14T07:26:12;6.30;99.90
23801;DHT22;12081;48.614;10.226;2023-12-14T07:28:56;5.30;99.90
23801;DHT22;12081;48.614;10.226;2023-12-14T07:31:41;4.50;99.90
23801;DHT22;12081;48.614;10.226;2023-12-14T07:34:25;5.50;99.90
23801;DHT22;12081;48.614;10.226;2023-12-14T07:37:12;6.60;99.90
23801;DHT22;12081;48.614;10.226;2023-12-14T07:39:56;6.50;99.90
23801;DHT22;12081;48.614;10.226;2023-12-14T07:42:42;4.20;99.90
23801;DHT22;12081;48.614;10.226;2023-12-14T07:45:26;5.70;99.90
23801;DHT22;12081;48.614;10.226;2023-12-14T07:48:10;5.20;99.90
23801;DHT22;12081;48.614;10.226;2023-12-14T07:50:54;6.70;99.90
23801;DHT22;12081;48.614;10.226;2023-12-14T07:53:38;6.60;99.90
23801;DHT22;12081;48.614;10.226;2023-12-14T07:56:23;6.10;99.90
23801;DHT22;12081;48.614;10.226;2023-12-14T07:59:10;5.40;99.90
23801;DHT22;12081;48.614;10.226;2023-12-14T08:01:54;6.10;99.90
23801;DHT22;12081;48.614;10.226;2023-12-14T08:04:39;6.60;99.90
23801;DHT22;12081;48.614;10.226;2023-12-14T08:07:23;5.60;99.90
23801;DHT22;12081;48.614;10.226;2023-12-14T08:10:12;5.90;99.90
23801;DHT22;12081;48.614;10.226;2023-12-14T08:12:57;4.30;99.90
23801;DHT22;12081;48.614;10.226;2023-12-14T08:15:41;7.00;99.90
23801;DHT22;12081;48.614;10.226;2023-12-14T08:18:25;4.50;99.90
23801;DHT22;12081;48.614;10.226;2023-12-14T08:21:09;4.50;99.90
23801;DHT22;12081;48.614;10.226;2023-12-14T08:23:53;4.50;99.90
23801;DHT22;12081;48.614;10.226;2023-12-14T08:26:37;4.50;99.90
23801;DHT22;12081;48.614;10.226;2023-12-14T08:29:21;6.60;99.90
23801;DHT22;12081;48.614;10.226;2023-12-14T08:32:06;6.60;99.90
23801;DHT22;12081;48.614;10.226;2023-12-14T08:34:51;4.80;99.90
23801;DHT22;12081;48.614;10.226;2023-12-14T08:37:36;6.90;99.90
23801;DHT22;12081;48.614;10.226;2023-12-14T08:40:20;7.20;99.90
23801;DHT22;12081;48.614;10.226;2023-12-14T08:43:04;6.90;99.90
23801;DHT22;12081;48.614;10.226;2023-12-14T08:45:49;7.00;99.90
23801;DHT22;12081;48.614;10.226;2023-12-14T08:48:33;7.80;99.90
23801;DHT22;12081;48.614;10.226;2023-12-14T08:51:17;7.90;99.90
23801;DHT22;12081;48.614;10.226;2023-12-14T08:54:29;8.20;99.90
23801;DHT22;12081;48.614;10.226;2023-12-14T08:57:13;6.20;99.90
23801;DHT22;12081;48.614;10.226;2023-12-14T08:59:57;8.00;99.90
23801;DHT22;12081;48.614;10.226;2023-12-14T09:02:42;8.90;99.90
23801;DHT22;12081;48.614;10.226;2023-12-14T09:05:28;9.60;99.90
23801;DHT22;12081;48.614;10.226;2023-12-14T09:08:12;10.80;99.90
23801;DHT22;12081;48.614;10.226;2023-12-14T09:10:56;13.70;99.90
23801;DHT22;12081;48.614;10.226;2023-12-14T09:13:41;13.60;99.90
23801;DHT22;12081;48.614;10.226;2023-12-14T09:16:26;16.10;99.90
23801;DHT22;12081;48.614;10.226;2023-12-14T09:19:10;17.10;99.90
23801;DHT22;12081;48.614;10.226;2023-12-14T09:21:54;18.40;99.90
23801;DHT22;12081;48.614;10.226;2023-12-14T09:24:38;17.00;97.80
23801;DHT22;12081;48.614;10.226;2023-12-14T09:27:23;18.20;96.80
23801;DHT22;12081;48.614;10.226;2023-12-14T09:30:07;18.80;94.10
23801;DHT22;12081;48.614;10.226;2023-12-14T09:32:52;19.00;88.80
23801;DHT22;12081;48.614;10.226;2023-12-14T09:35:37;20.10;86.40
23801;DHT22;12081;48.614;10.226;2023-12-14T09:38:21;20.20;76.70
23801;DHT22;12081;48.614;10.226;2023-12-14T09:41:06;19.80;77.70
23801;DHT22;12081;48.614;10.226;2023-12-14T09:43:52;18.90;76.60
23801;DHT22;12081;48.614;10.226;2023-12-14T09:46:37;17.90;80.30
23801;DHT22;12081;48.614;10.226;2023-12-14T09:49:22;17.40;81.50
23801;DHT22;12081;48.614;10.226;2023-12-14T09:52:09;17.00;84.70
23801;DHT22;12081;48.614;10.226;2023-12-14T09:54:53;16.30;85.60
23801;DHT22;12081;48.614;10.226;2023-12-14T09:57:37;17.30;90.70
23801;DHT22;12081;48.614;10.226;2023-12-14T10:00:38;16.10;94.10
23801;DHT22;12081;48.614;10.226;2023-12-14T10:03:27;13.70;97.90
23801;DHT22;12081;48.614;10.226;2023-12-14T10:06:12;12.90;99.90
23801;DHT22;12081;48.614;10.226;2023-12-14T10:08:56;13.60;99.90
23801;DHT22;12081;48.614;10.226;2023-12-14T10:11:42;12.00;99.90
23801;DHT22;12081;48.614;10.226;2023-12-14T10:14:27;11.30;99.90
23801;DHT22;12081;48.614;10.226;2023-12-14T10:17:21;12.20;99.90
23801;DHT22;12081;48.614;10.226;2023-12-14T10:20:08;9.60;99.90
23801;DHT22;12081;48.614;10.226;2023-12-14T10:22:53;9.20;99.90
23801;DHT22;12081;48.614;10.226;2023-12-14T10:25:39;10.60;99.90
23801;DHT22;12081;48.614;10.226;2023-12-14T10:28:23;10.10;99.90
23801;DHT22;12081;48.614;10.226;2023-12-14T10:31:09;10.00;99.90
23801;DHT22;12081;48.614;10.226;2023-12-14T10:33:54;11.00;99.90
23801;DHT22;12081;48.614;10.226;2023-12-14T10:36:38;8.40;99.90
23801;DHT22;12081;48.614;10.226;2023-12-14T10:39:23;7.40;99.90
23801;DHT22;12081;48.614;10.226;2023-12-14T10:42:09;10.00;99.90
23801;DHT22;12081;48.614;10.226;2023-12-14T10:44:53;10.60;99.90
23801;DHT22;12081;48.614;10.226;2023-12-14T10:47:46;10.50;99.90
23801;DHT22;12081;48.614;10.226;2023-12-14T10:50:31;10.00;99.90
23801;DHT22;12081;48.614;10.226;2023-12-14T10:53:15;8.10;99.90
23801;DHT22;12081;48.614;10.226;2023-12-14T10:56:01;10.40;99.90
23801;DHT22;12081;48.614;10.226;2023-12-14T10:58:55;10.10;99.90
23801;DHT22;12081;48.614;10.226;2023-12-14T11:01:40;10.40;99.90
23801;DHT22;12081;48.614;10.226;2023-12-14T11:04:26;9.60;99.90
23801;DHT22;12081;48.614;10.226;2023-12-14T11:07:11;9.20;99.90
23801;DHT22;12081;48.614;10.226;2023-12-14T11:09:55;9.30;99.90
23801;DHT22;12081;48.614;10.226;2023-12-14T11:15:36;9.80;99.90
23801;DHT22;12081;48.614;10.226;2023-12-14T11:18:22;10.80;99.90
23801;DHT22;12081;48.614;10.226;2023-12-14T11:21:06;10.90;99.90
23801;DHT22;12081;48.614;10.226;2023-12-14T11:23:50;8.60;99.90
23801;DHT22;12081;48.614;10.226;2023-12-14T11:26:35;10.60;99.90
23801;DHT22;12081;48.614;10.226;2023-12-14T11:29:19;10.60;99.90
23801;DHT22;12081;48.614;10.226;2023-12-14T11:32:06;10.80;99.90
23801;DHT22;12081;48.614;10.226;2023-12-14T11:34:50;10.90;99.90
23801;DHT22;12081;48.614;10.226;2023-12-14T11:37:34;11.70;99.90
23801;DHT22;12081;48.614;10.226;2023-12-14T11:40:20;13.60;99.90
23801;DHT22;12081;48.614;10.226;2023-12-14T11:43:07;14.60;99.90
23801;DHT22;12081;48.614;10.226;2023-12-14T11:45:53;15.90;99.90
23801;DHT22;12081;48.614;10.226;2023-12-14T11:48:39;14.90;99.90
23801;DHT22;12081;48.614;10.226;2023-12-14T11:51:24;16.50;99.90
23801;DHT22;12081;48.614;10.226;2023-12-14T11:54:09;16.30;96.90
23801;DHT22;12081;48.614;10.226;2023-12-14T11:56:53;16.70;94.20
23801;DHT22;12081;48.614;10.226;2023-12-14T11:59:37;16.10;95.10
23801;DHT22;12081;48.614;10.226;2023-12-14T12:02:25;15.80;94.00
23801;DHT22;12081;48.614;10.226;2023-12-14T12:05:10;16.70;96.60
23801;DHT22;12081;48.614;10.226;2023-12-14T12:08:02;14.00;95.80
23801;DHT22;12081;48.614;10.226;2023-12-14T12:10:48;12.80;99.10
23801;DHT22;12081;48.614;10.226;2023-12-14T12:13:34;12.10;99.90
23801;DHT22;12081;48.614;10.226;2023-12-14T12:16:18;11.50;99.90
23801;DHT22;12081;48.614;10.226;2023-12-14T12:19:02;11.20;99.90
23801;DHT22;12081;48.614;10.226;2023-12-14T12:21:47;11.40;99.90
23801;DHT22;12081;48.614;10.226;2023-12-14T12:24:31;10.20;99.90
23801;DHT22;12081;48.614;10.226;2023-12-14T12:27:15;9.90;99.90
23801;DHT22;12081;48.614;10.226;2023-12-14T12:29:59;9.60;99.90
23801;DHT22;12081;48.614;10.226;2023-12-14T12:32:43;9.60;99.90
23801;DHT22;12081;48.614;10.226;2023-12-14T12:35:27;9.90;99.90
23801;DHT22;12081;48.614;10.226;2023-12-14T12:38:14;10.20;99.90
23801;DHT22;12081;48.614;10.226;2023-12-14T12:41:00;11.10;99.90
23801;DHT22;12081;48.614;10.226;2023-12-14T12:43:44;11.50;99.90
23801;DHT22;12081;48.614;10.226;2023-12-14T12:46:28;11.50;99.90
23801;DHT22;12081;48.614;10.226;2023-12-14T12:49:12;11.40;99.90
23801;DHT22;12081;48.614;10.226;2023-12-14T12:51:56;12.60;99.90
23801;DHT22;12081;48.614;10.226;2023-12-14T12:54:40;10.90;99.90
23801;DHT22;12081;48.614;10.226;2023-12-14T12:57:24;10.30;99.90
23801;DHT22;12081;48.614;10.226;2023-12-14T13:00:09;9.80;99.90
23801;DHT22;12081;48.614;10.226;2023-12-14T13:02:57;9.10;99.90
23801;DHT22;12081;48.614;10.226;2023-12-14T13:05:41;8.60;99.90
23801;DHT22;12081;48.614;10.226;2023-12-14T13:08:26;8.40;99.90
23801;DHT22;12081;48.614;10.226;2023-12-14T13:11:10;7.90;99.90
23801;DHT22;12081;48.614;10.226;2023-12-14T13:13:54;7.60;99.90
23801;DHT22;12081;48.614;10.226;2023-12-14T13:16:38;7.40;99.90
23801;DHT22;12081;48.614;10.226;2023-12-14T13:19:23;7.40;99.90
23801;DHT22;12081;48.614;10.226;2023-12-14T13:22:07;7.50;99.90
23801;DHT22;12081;48.614;10.226;2023-12-14T13:24:52;7.60;99.90
23801;DHT22;12081;48.614;10.226;2023-12-14T13:27:36;8.20;99.90
23801;DHT22;12081;48.614;10.226;2023-12-14T13:30:20;9.20;99.90
23801;DHT22;12081;48.614;10.226;2023-12-14T13:33:07;7.60;99.90
23801;DHT22;12081;48.614;10.226;2023-12-14T13:35:52;7.80;99.90
23801;DHT22;12081;48.614;10.226;2023-12-14T13:38:37;7.90;99.90
23801;DHT22;12081;48.614;10.226;2023-12-14T13:41:21;7.90;99.90
23801;DHT22;12081;48.614;10.226;2023-12-14T13:44:05;7.90;99.90
23801;DHT22;12081;48.614;10.226;2023-12-14T13:46:49;8.70;99.90
23801;DHT22;12081;48.614;10.226;2023-12-14T13:49:33;8.00;99.90
23801;DHT22;12081;48.614;10.226;2023-12-14T13:52:18;8.30;99.90
23801;DHT22;12081;48.614;10.226;2023-12-14T13:55:02;8.10;99.90
23801;DHT22;12081;48.614;10.226;2023-12-14T13:57:46;8.30;99.90
23801;DHT22;12081;48.614;10.226;2023-12-14T14:00:32;8.80;99.90
23801;DHT22;12081;48.614;10.226;2023-12-14T14:03:18;8.30;99.90
23801;DHT22;12081;48.614;10.226;2023-12-14T14:06:04;8.30;99.90
23801;DHT22;12081;48.614;10.226;2023-12-14T14:08:48;8.50;99.90
23801;DHT22;12081;48.614;10.226;2023-12-14T14:11:32;9.00;99.90
23801;DHT22;12081;48.614;10.226;2023-12-14T14:14:16;9.20;99.90
23801;DHT22;12081;48.614;10.226;2023-12-14T14:17:00;9.40;99.90
23801;DHT22;12081;48.614;10.226;2023-12-14T14:19:44;9.30;99.90
23801;DHT22;12081;48.614;10.226;2023-12-14T14:22:28;9.00;99.90
23801;DHT22;12081;48.614;10.226;2023-12-14T14:25:13;8.70;99.90
23801;DHT22;12081;48.614;10.226;2023-12-14T14:27:57;8.40;99.90
23801;DHT22;12081;48.614;10.226;2023-12-14T14:30:42;8.20;99.90
23801;DHT22;12081;48.614;10.226;2023-12-14T14:33:26;8.00;99.90
23801;DHT22;12081;48.614;10.226;2023-12-14T14:36:10;7.80;99.90
23801;DHT22;12081;48.614;10.226;2023-12-14T14:38:54;7.70;99.90
23801;DHT22;12081;48.614;10.226;2023-12-14T14:41:41;7.50;99.90
23801;DHT22;12081;48.614;10.226;2023-12-14T14:44:25;7.40;99.90
23801;DHT22;12081;48.614;10.226;2023-12-14T14:47:09;7.30;99.90
23801;DHT22;12081;48.614;10.226;2023-12-14T14:49:53;7.30;99.90
23801;DHT22;12081;48.614;10.226;2023-12-14T14:52:41;7.20;99.90
23801;DHT22;12081;48.614;10.226;2023-12-14T14:55:25;7.10;99.90
23801;DHT22;12081;48.614;10.226;2023-12-14T14:58:10;4.90;99.90
23801;DHT22;12081;48.614;10.226;2023-12-14T15:00:54;7.00;99.90
23801;DHT22;12081;48.614;10.226;2023-12-14T15:03:38;6.90;99.90
23801;DHT22;12081;48.614;10.226;2023-12-14T15:06:22;6.80;99.90
23801;DHT22;12081;48.614;10.226;2023-12-14T15:09:06;6.80;99.90
23801;DHT22;12081;48.614;10.226;2023-12-14T15:11:53;6.50;99.90
23801;DHT22;12081;48.614;10.226;2023-12-14T15:14:37;6.50;99.90
23801;DHT22;12081;48.614;10.226;2023-12-14T15:17:22;6.30;99.90
23801;DHT22;12081;48.614;10.226;2023-12-14T15:20:07;6.20;99.90
23801;DHT22;12081;48.614;10.226;2023-12-14T15:22:51;6.00;99.90
23801;DHT22;12081;48.614;10.226;2023-12-14T15:25:35;5.90;99.90
23801;DHT22;12081;48.614;10.226;2023-12-14T15:28:19;5.80;99.90
23801;DHT22;12081;48.614;10.226;2023-12-14T15:31:03;5.60;99.90
23801;DHT22;12081;48.614;10.226;2023-12-14T15:33:47;6.80;99.90
23801;DHT22;12081;48.614;10.226;2023-12-14T15:36:32;5.50;99.90
23801;DHT22;12081;48.614;10.226;2023-12-14T15:39:17;5.40;99.90
23801;DHT22;12081;48.614;10.226;2023-12-14T15:42:01;5.40;99.90
23801;DHT22;12081;48.614;10.226;2023-12-14T15:44:46;5.40;99.90
23801;DHT22;12081;48.614;10.226;2023-12-14T15:47:30;5.30;99.90
23801;DHT22;12081;48.614;10.226;2023-12-14T15:50:14;5.30;99.90
23801;DHT22;12081;48.614;10.226;2023-12-14T15:52:58;5.30;99.90
23801;DHT22;12081;48.614;10.226;2023-12-14T15:55:42;5.30;99.90
23801;DHT22;12081;48.614;10.226;2023-12-14T15:58:26;5.30;99.90
23801;DHT22;12081;48.614;10.226;2023-12-14T16:01:11;5.30;99.90
23801;DHT22;12081;48.614;10.226;2023-12-14T16:03:57;5.20;99.90
23801;DHT22;12081;48.614;10.226;2023-12-14T16:06:41;5.20;99.90
23801;DHT22;12081;48.614;10.226;2023-12-14T16:09:25;5.20;99.90
23801;DHT22;12081;48.614;10.226;2023-12-14T16:12:09;5.20;99.90
23801;DHT22;12081;48.614;10.226;2023-12-14T16:14:53;5.20;99.90
23801;DHT22;12081;48.614;10.226;2023-12-14T16:17:40;5.30;99.90
23801;DHT22;12081;48.614;10.226;2023-12-14T16:20:24;5.30;99.90
23801;DHT22;12081;48.614;10.226;2023-12-14T16:23:09;5.30;99.90
23801;DHT22;12081;48.614;10.226;2023-12-14T16:25:53;5.30;99.90
23801;DHT22;12081;48.614;10.226;2023-12-14T16:28:41;5.20;99.90
23801;DHT22;12081;48.614;10.226;2023-12-14T16:31:25;5.20;99.90
23801;DHT22;12081;48.614;10.226;2023-12-14T16:34:09;5.20;99.90
23801;DHT22;12081;48.614;10.226;2023-12-14T16:36:53;5.20;99.90
23801;DHT22;12081;48.614;10.226;2023-12-14T16:39:41;5.20;99.90
23801;DHT22;12081;48.614;10.226;2023-12-14T16:42:25;5.20;99.90
23801;DHT22;12081;48.614;10.226;2023-12-14T16:45:09;5.20;99.90
23801;DHT22;12081;48.614;10.226;2023-12-14T16:47:55;5.10;99.90
23801;DHT22;12081;48.614;10.226;2023-12-14T16:50:39;5.20;99.90
23801;DHT22;12081;48.614;10.226;2023-12-14T16:53:23;5.20;99.90
23801;DHT22;12081;48.614;10.226;2023-12-14T16:56:09;5.20;99.90
23801;DHT22;12081;48.614;10.226;2023-12-14T16:58:53;5.20;99.90
23801;DHT22;12081;48.614;10.226;2023-12-14T17:01:37;5.20;99.90
23801;DHT22;12081;48.614;10.226;2023-12-14T17:04:25;5.20;99.90
23801;DHT22;12081;48.614;10.226;2023-12-14T17:07:09;5.10;99.90
23801;DHT22;12081;48.614;10.226;2023-12-14T17:09:53;5.10;99.90
23801;DHT22;12081;48.614;10.226;2023-12-14T17:12:38;5.10;99.90
23801;DHT22;12081;48.614;10.226;2023-12-14T17:15:22;5.10;99.90
23801;DHT22;12081;48.614;10.226;2023-12-14T17:18:06;5.20;99.90
23801;DHT22;12081;48.614;10.226;2023-12-14T17:20:50;5.20;99.90